Time;durP1;ratioP1;P1;durP2;ratioP2;P2;SDS_P1;SDS_P2;PMS_P1;PMS_P2;Temp;Humidity;BMP_temperature;BMP_pressure;BME280_temperature;BME280_humidity;BME280_pressure;Samples;Min_cycle;Max_cycle;Signal;HPM_P1;HPM_P2
2021/11/06 00:11:28;;;;;;;21.47;13.70;;;;;4.60;102395.00;;;;10532445;28;20583;-78
2021/11/06 00:16:44;;;;;;;23.90;14.73;;;;;4.60;102401.00;;;;10523542;28;20265;-78
2021/11/06 00:21:46;;;;;;;23.00;14.27;;;;;4.50;102395.00;;;;10509264;28;20200;-78
2021/11/06 00:26:50;;;;;;;25.03;14.93;;;;;4.40;102396.00;;;;10530218;28;20249;-78
2021/11/06 00:31:52;;;;;;;21.27;12.30;;;;;4.40;102384.00;;;;10567829;28;20187;-78
2021/11/06 00:36:55;;;;;;;23.27;14.40;;;;;4.40;102384.00;;;;10550580;28;20222;-77
2021/11/06 00:41:56;;;;;;;22.57;14.03;;;;;4.30;102383.00;;;;10508264;28;20231;-77
2021/11/06 00:46:58;;;;;;;19.17;13.73;;;;;4.30;102384.00;;;;10499808;28;20204;-78
2021/11/06 00:52:00;;;;;;;21.23;13.40;;;;;4.30;102378.00;;;;10532865;28;20188;-78
2021/11/06 00:57:03;;;;;;;19.57;13.37;;;;;4.30;102382.00;;;;10533825;28;20205;-78
2021/11/06 01:02:05;;;;;;;26.77;14.67;;;;;4.30;102387.00;;;;10551401;28;20193;-78
2021/11/06 01:07:08;;;;;;;26.97;14.10;;;;;4.30;102386.00;;;;10567627;28;20192;-77
2021/11/06 01:12:10;;;;;;;21.27;13.97;;;;;4.30;102387.00;;;;10507839;28;20188;-78
2021/11/06 01:17:12;;;;;;;22.70;14.27;;;;;4.20;102385.00;;;;10474115;28;20271;-78
2021/11/06 01:22:14;;;;;;;23.70;13.53;;;;;4.20;102389.00;;;;10492132;28;20192;-77
2021/11/06 01:27:16;;;;;;;25.60;14.70;;;;;4.10;102390.00;;;;10548733;28;20193;-78
2021/11/06 01:32:18;;;;;;;24.53;15.67;;;;;4.10;102401.00;;;;10532279;28;20253;-78
2021/11/06 01:37:20;;;;;;;25.13;14.23;;;;;4.10;102404.00;;;;10530159;28;20302;-78
2021/11/06 01:42:23;;;;;;;21.03;13.63;;;;;4.00;102395.00;;;;10506185;28;20188;-78
2021/11/06 01:47:25;;;;;;;22.37;14.13;;;;;4.00;102395.00;;;;10489435;28;20212;-78
2021/11/06 01:52:30;;;;;;;21.13;12.47;;;;;3.90;102377.00;;;;10506321;28;20189;-78
2021/11/06 01:57:32;;;;;;;26.60;13.90;;;;;3.90;102376.00;;;;10523105;28;20560;-78
2021/11/06 02:02:34;;;;;;;23.03;13.73;;;;;3.90;102371.00;;;;10489896;28;20189;-78
2021/11/06 02:07:36;;;;;;;23.27;13.97;;;;;3.90;102371.00;;;;10539581;28;20193;-78
2021/11/06 02:12:40;;;;;;;24.97;14.83;;;;;3.90;102377.00;;;;10522687;28;20691;-78
2021/11/06 02:17:42;;;;;;;24.67;14.30;;;;;4.00;102374.00;;;;10505535;28;20209;-78
2021/11/06 02:22:45;;;;;;;19.83;12.87;;;;;3.90;102366.00;;;;10505804;28;20181;-78
2021/11/06 02:27:47;;;;;;;24.23;13.37;;;;;3.90;102371.00;;;;10488857;28;20185;-78
2021/11/06 02:32:52;;;;;;;19.33;13.47;;;;;3.90;102365.00;;;;10488755;28;20202;-78
2021/11/06 02:37:54;;;;;;;24.20;12.83;;;;;3.90;102374.00;;;;10511170;28;20208;-78
2021/11/06 02:42:56;;;;;;;21.43;12.90;;;;;3.90;102370.00;;;;10530319;28;20658;-78
2021/11/06 02:47:58;;;;;;;16.63;10.97;;;;;3.80;102381.00;;;;10513886;28;20209;-78
2021/11/06 02:53:02;;;;;;;17.73;11.40;;;;;3.70;102377.00;;;;10513645;28;20727;-78
2021/11/06 02:58:04;;;;;;;18.33;11.10;;;;;3.60;102373.00;;;;10521976;28;20208;-78
2021/11/06 03:03:07;;;;;;;18.70;10.23;;;;;3.60;102374.00;;;;10537830;28;20604;-77
2021/11/06 03:08:09;;;;;;;18.30;10.23;;;;;3.60;102381.00;;;;10538047;28;20193;-78
2021/11/06 03:13:11;;;;;;;20.40;10.70;;;;;3.60;102357.00;;;;10537387;28;20237;-78
2021/11/06 03:18:13;;;;;;;18.03;11.00;;;;;3.60;102354.00;;;;10537203;28;20228;-78
2021/11/06 03:23:15;;;;;;;14.73;9.83;;;;;3.60;102373.00;;;;10570232;28;20204;-78
2021/11/06 03:28:17;;;;;;;14.83;9.67;;;;;3.60;102368.00;;;;10537231;28;20188;-78
2021/11/06 03:33:19;;;;;;;18.83;11.20;;;;;3.50;102356.00;;;;10537310;28;20536;-78
2021/11/06 03:38:22;;;;;;;21.43;10.77;;;;;3.50;102373.00;;;;10520332;28;20208;-78
2021/11/06 03:43:24;;;;;;;16.07;10.90;;;;;3.50;102373.00;;;;10536576;28;20188;-78
2021/11/06 03:48:26;;;;;;;17.47;11.27;;;;;3.60;102364.00;;;;10552915;28;20299;-78
2021/11/06 03:53:28;;;;;;;19.83;10.43;;;;;3.70;102362.00;;;;10536255;28;20199;-78
2021/11/06 03:58:30;;;;;;;17.10;11.87;;;;;3.80;102371.00;;;;10535419;28;20262;-78
2021/11/06 04:03:32;;;;;;;19.13;11.30;;;;;3.90;102371.00;;;;10552312;28;20967;-78
2021/11/06 04:08:34;;;;;;;18.37;11.73;;;;;3.90;102364.00;;;;10535396;28;20200;-78
2021/11/06 04:13:36;;;;;;;18.17;11.30;;;;;4.00;102359.00;;;;10569042;28;20184;-78
2021/11/06 04:18:38;;;;;;;20.47;11.43;;;;;4.10;102373.00;;;;10551522;28;20208;-78
2021/11/06 04:23:40;;;;;;;20.47;12.83;;;;;4.10;102375.00;;;;10568373;28;20215;-78
2021/11/06 04:28:43;;;;;;;23.57;11.80;;;;;4.20;102368.00;;;;10568689;28;20230;-78
2021/11/06 04:33:44;;;;;;;19.80;12.07;;;;;4.30;102374.00;;;;10568060;28;20249;-78
2021/11/06 04:38:46;;;;;;;14.70;11.57;;;;;4.30;102374.00;;;;10550623;28;20209;-78
2021/11/06 04:43:49;;;;;;;21.07;12.13;;;;;4.40;102372.00;;;;10517198;28;20249;-78
2021/11/06 04:48:51;;;;;;;15.97;11.07;;;;;4.40;102376.00;;;;10550279;28;20235;-78
2021/11/06 04:53:53;;;;;;;16.50;12.50;;;;;4.30;102369.00;;;;10533058;28;20257;-78
2021/11/06 04:58:55;;;;;;;17.23;10.43;;;;;4.30;102359.00;;;;10533332;28;20257;-78
2021/11/06 05:03:57;;;;;;;18.97;10.23;;;;;4.40;102358.00;;;;10516700;28;20204;-78
2021/11/06 05:09:00;;;;;;;18.67;11.80;;;;;4.40;102378.00;;;;10501426;28;20197;-78
2021/11/06 05:14:02;;;;;;;17.87;11.00;;;;;4.50;102375.00;;;;10490933;28;20548;-78
2021/11/06 05:19:05;;;;;;;18.73;10.63;;;;;4.50;102369.00;;;;10495409;28;20254;-78
2021/11/06 05:24:09;;;;;;;14.97;10.03;;;;;4.60;102374.00;;;;10508032;28;20551;-78
2021/11/06 05:29:11;;;;;;;16.53;11.00;;;;;4.70;102369.00;;;;10508716;28;20201;-79
2021/11/06 05:34:13;;;;;;;14.87;9.97;;;;;4.60;102367.00;;;;10490238;28;20242;-78
2021/11/06 05:39:15;;;;;;;13.77;9.87;;;;;4.60;102354.00;;;;10508114;28;20208;-78
2021/11/06 05:44:17;;;;;;;13.43;8.90;;;;;4.70;102365.00;;;;10548280;28;20188;-78
2021/11/06 05:49:19;;;;;;;13.03;9.33;;;;;4.80;102361.00;;;;10531648;28;20223;-78
2021/11/06 05:54:21;;;;;;;12.07;9.30;;;;;4.80;102363.00;;;;10514748;28;20643;-78
2021/11/06 05:59:23;;;;;;;14.73;9.27;;;;;4.90;102366.00;;;;10548561;28;20257;-78
2021/11/06 06:04:30;;;;;;;15.50;8.97;;;;;4.90;102364.00;;;;10547597;28;20195;-78
2021/11/06 06:09:31;;;;;;;15.33;10.13;;;;;4.90;102367.00;;;;10530463;28;20200;-78
2021/11/06 06:14:33;;;;;;;12.93;9.00;;;;;5.00;102366.00;;;;10531049;28;20191;-78
2021/11/06 06:19:35;;;;;;;13.73;8.67;;;;;5.10;102358.00;;;;10530707;28;20254;-78
2021/11/06 06:24:37;;;;;;;16.73;9.27;;;;;5.20;102365.00;;;;10547944;28;20234;-78
2021/11/06 06:29:39;;;;;;;15.97;9.03;;;;;5.40;102373.00;;;;10535542;28;20723;-79
2021/11/06 06:34:41;;;;;;;15.60;8.93;;;;;5.50;102373.00;;;;10539598;28;20196;-78
2021/11/06 06:39:43;;;;;;;14.50;9.50;;;;;5.60;102378.00;;;;10517326;28;20205;-78
2021/11/06 06:44:45;;;;;;;13.40;8.10;;;;;5.70;102376.00;;;;10530262;28;20269;-78
2021/11/06 06:49:47;;;;;;;14.27;8.73;;;;;5.70;102382.00;;;;10512601;28;20212;-78
2021/11/06 06:54:49;;;;;;;15.83;8.27;;;;;5.80;102373.00;;;;10496579;28;20189;-78
2021/11/06 06:59:51;;;;;;;15.33;9.20;;;;;5.90;102388.00;;;;10513043;28;20736;-78
2021/11/06 07:04:53;;;;;;;10.33;8.47;;;;;6.00;102384.00;;;;10512865;28;20211;-78
2021/11/06 07:09:56;;;;;;;12.47;7.57;;;;;6.10;102377.00;;;;10552677;28;20199;-79
2021/11/06 07:14:57;;;;;;;10.87;6.97;;;;;6.10;102367.00;;;;10537406;28;20188;-78
2021/11/06 07:19:59;;;;;;;10.30;7.13;;;;;6.20;102375.00;;;;10520597;28;20215;-78
2021/11/06 07:25:06;;;;;;;12.80;7.47;;;;;6.30;102382.00;;;;10538174;28;20212;-78
2021/11/06 07:30:09;;;;;;;11.60;7.70;;;;;6.30;102382.00;;;;10519574;28;20184;-78
2021/11/06 07:35:11;;;;;;;11.53;7.10;;;;;6.40;102388.00;;;;10495172;28;20243;-78
2021/11/06 07:40:14;;;;;;;12.10;7.10;;;;;6.40;102385.00;;;;10519570;28;20687;-78
2021/11/06 07:45:19;;;;;;;10.10;7.40;;;;;6.50;102386.00;;;;10537089;28;20188;-78
2021/11/06 07:50:21;;;;;;;8.40;6.73;;;;;6.50;102390.00;;;;10531807;28;20271;-78
2021/11/06 07:55:23;;;;;;;9.03;7.43;;;;;6.60;102386.00;;;;10510923;28;20243;-78
2021/11/06 08:00:25;;;;;;;10.83;7.50;;;;;6.70;102383.00;;;;10494173;28;20209;-78
2021/11/06 08:05:27;;;;;;;13.47;6.90;;;;;6.80;102375.00;;;;10527274;28;20201;-77
2021/11/06 08:10:30;;;;;;;8.90;6.67;;;;;6.80;102374.00;;;;10510778;28;20199;-77
2021/11/06 08:15:32;;;;;;;8.50;6.23;;;;;7.00;102373.00;;;;10494026;28;20201;-77
2021/11/06 08:20:35;;;;;;;7.10;5.50;;;;;7.10;102368.00;;;;10511100;28;20254;-78
2021/11/06 08:25:38;;;;;;;8.17;5.77;;;;;7.30;102362.00;;;;10493400;28;20627;-78
2021/11/06 08:30:40;;;;;;;8.30;6.17;;;;;7.40;102361.00;;;;10508916;28;20711;-78
2021/11/06 08:35:42;;;;;;;7.23;5.43;;;;;7.60;102360.00;;;;10508906;28;20215;-77
2021/11/06 08:40:44;;;;;;;7.70;5.87;;;;;7.70;102355.00;;;;10509473;28;20205;-77
2021/11/06 08:45:47;;;;;;;7.67;5.00;;;;;7.90;102358.00;;;;10526521;28;20239;-77
2021/11/06 08:50:49;;;;;;;9.50;5.53;;;;;8.10;102355.00;;;;10525499;28;20214;-78
2021/11/06 08:55:51;;;;;;;10.93;6.80;;;;;8.30;102361.00;;;;10524202;28;20670;-77
2021/11/06 09:00:54;;;;;;;6.77;5.90;;;;;8.60;102350.00;;;;10508351;28;20212;-77
2021/11/06 09:05:57;;;;;;;10.83;6.00;;;;;8.80;102350.00;;;;10526437;28;20200;-77
2021/11/06 09:11:03;;;;;;;8.70;5.87;;;;;9.10;102363.00;;;;10524937;28;20193;-77
2021/11/06 09:16:10;;;;;;;6.67;5.60;;;;;9.30;102366.00;;;;10508048;28;20572;-78
2021/11/06 09:21:15;;;;;;;8.43;5.90;;;;;9.30;102369.00;;;;10524338;28;20675;-77
2021/11/06 09:26:19;;;;;;;9.57;6.57;;;;;9.20;102366.00;;;;10507533;28;20194;-77
2021/11/06 09:31:21;;;;;;;9.23;6.43;;;;;9.20;102370.00;;;;10506491;28;20193;-77
2021/11/06 09:36:23;;;;;;;7.70;5.77;;;;;9.30;102376.00;;;;10506967;28;20197;-77
2021/11/06 09:41:25;;;;;;;9.40;6.53;;;;;9.30;102383.00;;;;10507081;28;20213;-77
2021/11/06 09:46:27;;;;;;;11.13;6.43;;;;;9.20;102376.00;;;;10490350;28;20232;-77
2021/11/06 09:51:30;;;;;;;10.93;6.70;;;;;9.40;102389.00;;;;10489877;28;20193;-77
2021/11/06 09:56:32;;;;;;;14.67;7.33;;;;;9.70;102375.00;;;;10490053;28;20224;-77
2021/11/06 10:01:34;;;;;;;13.80;7.90;;;;;10.00;102373.00;;;;10489728;28;20208;-77
2021/11/06 10:06:39;;;;;;;10.50;7.37;;;;;10.30;102363.00;;;;10522293;28;20185;-77
2021/11/06 10:11:50;;;;;;;11.07;7.07;;;;;10.50;102376.00;;;;10523719;28;20258;-77
2021/11/06 10:16:57;;;;;;;10.80;7.17;;;;;10.90;102373.00;;;;10505533;28;20242;-77
2021/11/06 10:22:09;;;;;;;10.87;7.10;;;;;11.10;102377.00;;;;10539307;28;20291;-77
2021/11/06 10:27:13;;;;;;;11.93;7.43;;;;;11.20;102373.00;;;;10522916;28;20192;-77
2021/11/06 10:32:15;;;;;;;9.37;6.27;;;;;11.30;102364.00;;;;10505819;28;20217;-77
2021/11/06 10:37:17;;;;;;;9.03;5.80;;;;;11.20;102356.00;;;;10539655;28;20224;-78
2021/11/06 10:42:19;;;;;;;9.80;5.47;;;;;11.20;102352.00;;;;10564235;28;20273;-77
2021/11/06 10:47:21;;;;;;;7.67;5.20;;;;;11.10;102351.00;;;;10547201;28;20254;-77
2021/11/06 10:52:23;;;;;;;11.33;5.50;;;;;11.10;102337.00;;;;10530697;28;20554;-77
2021/11/06 10:57:26;;;;;;;8.57;5.87;;;;;11.00;102341.00;;;;10529925;28;20287;-77
2021/11/06 11:02:28;;;;;;;8.83;5.60;;;;;10.80;102338.00;;;;10530482;28;20208;-78
2021/11/06 11:07:30;;;;;;;8.83;5.17;;;;;10.50;102345.00;;;;10547087;28;20235;-77
2021/11/06 11:12:32;;;;;;;11.10;6.20;;;;;10.20;102357.00;;;;10530138;28;20596;-77
2021/11/06 11:17:45;;;;;;;7.73;5.50;;;;;10.00;102342.00;;;;10535634;28;20195;-77
2021/11/06 11:22:46;;;;;;;7.23;5.27;;;;;9.90;102338.00;;;;10553918;28;20212;-77
2021/11/06 11:27:48;;;;;;;6.80;5.10;;;;;10.10;102316.00;;;;10554558;28;20291;-77
2021/11/06 11:32:50;;;;;;;8.47;4.30;;;;;10.40;102302.00;;;;10537060;28;20192;-77
2021/11/06 11:37:56;;;;;;;7.50;5.47;;;;;10.60;102311.00;;;;10537220;28;20192;-77
2021/11/06 11:43:22;;;;;;;7.90;5.13;;;;;10.80;102302.00;;;;10553552;28;20196;-77
2021/11/06 11:48:27;;;;;;;6.03;4.70;;;;;10.70;102298.00;;;;10537096;28;20239;-78
2021/11/06 11:53:31;;;;;;;7.00;4.60;;;;;10.60;102297.00;;;;10553191;28;20184;-77
2021/11/06 11:58:36;;;;;;;5.00;4.27;;;;;10.50;102295.00;;;;10553187;28;20208;-77
2021/11/06 12:03:41;;;;;;;4.97;4.47;;;;;10.40;102270.00;;;;10510453;28;20679;-77
2021/11/06 12:08:43;;;;;;;8.70;4.60;;;;;10.20;102278.00;;;;10507580;28;20200;-77
2021/11/06 12:13:49;;;;;;;7.73;5.23;;;;;10.20;102263.00;;;;10535425;28;20211;-77
2021/11/06 12:18:55;;;;;;;6.93;4.63;;;;;10.30;102256.00;;;;10552420;28;20208;-77
2021/11/06 12:24:25;;;;;;;5.40;4.60;;;;;10.40;102249.00;;;;10568758;28;20191;-77
2021/11/06 12:29:31;;;;;;;6.83;4.07;;;;;10.70;102243.00;;;;10548373;28;20227;-77
2021/11/06 12:34:54;;;;;;;6.33;4.03;;;;;11.30;102238.00;;;;10570564;28;20184;-77
2021/11/06 12:39:56;;;;;;;6.13;4.57;;;;;11.50;102237.00;;;;10518001;28;20203;-77
2021/11/06 12:45:06;;;;;;;8.77;4.80;;;;;11.00;102230.00;;;;10518033;28;20184;-77
2021/11/06 12:50:22;;;;;;;8.37;4.77;;;;;10.50;102225.00;;;;10551034;28;20236;-77
2021/11/06 12:55:24;;;;;;;7.63;4.97;;;;;10.20;102211.00;;;;10517093;28;20196;-77
2021/11/06 13:00:29;;;;;;;5.80;5.10;;;;;10.00;102189.00;;;;10533804;28;20204;-77
2021/11/06 13:05:46;;;;;;;5.10;4.60;;;;;9.90;102175.00;;;;10533747;28;20232;-77
2021/11/06 13:10:50;;;;;;;8.50;5.40;;;;;9.80;102158.00;;;;10485660;28;20656;-77
2021/11/06 13:15:53;;;;;;;7.27;5.23;;;;;9.80;102156.00;;;;10549453;28;20192;-77
2021/11/06 13:20:55;;;;;;;7.87;4.47;;;;;9.90;102145.00;;;;10566552;28;20228;-77
2021/11/06 13:25:58;;;;;;;9.43;5.13;;;;;10.00;102134.00;;;;10549407;28;20192;-77
2021/11/06 13:31:01;;;;;;;5.90;4.40;;;;;10.10;102129.00;;;;10565785;28;20212;-77
2021/11/06 13:36:07;;;;;;;4.67;4.13;;;;;10.10;102129.00;;;;10548854;28;20188;-77
2021/11/06 13:41:23;;;;;;;4.63;3.90;;;;;10.10;102111.00;;;;10539129;28;20567;-77
2021/11/06 13:46:36;;;;;;;7.20;3.47;;;;;10.10;102105.00;;;;10515149;28;20211;-77
2021/11/06 13:51:38;;;;;;;6.63;3.97;;;;;10.10;102094.00;;;;10548200;28;20192;-78
2021/11/06 13:56:52;;;;;;;7.10;3.87;;;;;10.10;102082.00;;;;10547825;28;20223;-77
2021/11/06 14:01:54;;;;;;;6.70;3.70;;;;;10.00;102087.00;;;;10548275;28;20212;-77
2021/11/06 14:06:56;;;;;;;5.27;4.53;;;;;9.90;102083.00;;;;10514723;28;20230;-77
2021/11/06 14:11:59;;;;;;;5.43;3.77;;;;;9.90;102083.00;;;;10530650;28;20204;-77
2021/11/06 14:17:06;;;;;;;6.40;4.60;;;;;9.80;102081.00;;;;10530831;28;20651;-77
2021/11/06 14:22:09;;;;;;;5.80;4.60;;;;;9.70;102069.00;;;;10530874;28;20212;-77
2021/11/06 14:27:12;;;;;;;5.40;3.83;;;;;9.80;102068.00;;;;10530408;28;20246;-77
2021/11/06 14:32:14;;;;;;;9.80;5.00;;;;;9.90;102056.00;;;;10547046;28;20635;-77
2021/11/06 14:37:17;;;;;;;7.73;4.50;;;;;9.90;102045.00;;;;10530400;28;20194;-77
2021/11/06 14:42:30;;;;;;;7.17;4.87;;;;;9.80;102038.00;;;;10547295;28;20275;-78
2021/11/06 14:47:32;;;;;;;8.27;4.53;;;;;9.80;102043.00;;;;10530038;28;20212;-78
2021/11/06 14:52:51;;;;;;;6.43;4.57;;;;;9.90;102025.00;;;;10523745;28;20200;-77
2021/11/06 14:57:55;;;;;;;6.67;5.07;;;;;10.00;102037.00;;;;10538317;28;20655;-77
2021/11/06 15:03:00;;;;;;;5.87;4.60;;;;;10.10;102031.00;;;;10537908;28;20200;-78
2021/11/06 15:08:05;;;;;;;4.93;3.80;;;;;10.10;102036.00;;;;10571266;28;20192;-77
2021/11/06 15:13:11;;;;;;;6.17;4.20;;;;;10.00;102038.00;;;;10537471;28;20559;-77
2021/11/06 15:18:13;;;;;;;4.43;3.73;;;;;10.00;102024.00;;;;10554021;28;20194;-78
2021/11/06 15:23:18;;;;;;;5.33;4.27;;;;;10.00;102019.00;;;;10537023;28;20752;-78
2021/11/06 15:28:20;;;;;;;8.00;4.30;;;;;10.10;102026.00;;;;10537576;28;20647;-77
2021/11/06 15:33:22;;;;;;;5.93;3.43;;;;;10.10;102012.00;;;;10520548;28;20214;-78
2021/11/06 15:38:24;;;;;;;5.40;3.83;;;;;10.00;102029.00;;;;10526179;28;20226;-78
2021/11/06 15:43:26;;;;;;;6.17;3.87;;;;;10.00;102013.00;;;;10511209;28;20244;-77
2021/11/06 15:48:30;;;;;;;5.87;3.60;;;;;10.00;102009.00;;;;10510953;28;20254;-78
2021/11/06 15:53:32;;;;;;;4.93;4.10;;;;;10.00;102004.00;;;;10510929;28;20188;-77
2021/11/06 15:58:34;;;;;;;6.20;4.10;;;;;10.10;102000.00;;;;10527125;28;20717;-77
2021/11/06 16:03:36;;;;;;;4.70;3.70;;;;;10.00;101987.00;;;;10555665;28;20200;-77
2021/11/06 16:08:38;;;;;;;5.20;3.83;;;;;10.00;101985.00;;;;10522850;28;20205;-77
2021/11/06 16:13:41;;;;;;;7.97;4.30;;;;;9.90;101974.00;;;;10560203;28;20193;-77
2021/11/06 16:18:47;;;;;;;6.03;3.93;;;;;9.90;101969.00;;;;10568280;28;20257;-78
2021/11/06 16:23:51;;;;;;;6.83;3.63;;;;;9.80;101955.00;;;;10568461;28;20187;-77
2021/11/06 16:28:55;;;;;;;4.83;3.60;;;;;9.70;101956.00;;;;10567990;28;20597;-78
2021/11/06 16:33:58;;;;;;;5.80;3.80;;;;;9.70;101958.00;;;;10534229;28;20184;-77
2021/11/06 16:39:00;;;;;;;4.97;3.43;;;;;9.60;101959.00;;;;10551898;28;20614;-77
2021/11/06 16:44:02;;;;;;;4.03;3.60;;;;;9.50;101938.00;;;;10525263;28;20195;-77
2021/11/06 16:49:04;;;;;;;4.93;3.57;;;;;9.50;101938.00;;;;10508164;28;20254;-77
2021/11/06 16:54:06;;;;;;;5.00;4.00;;;;;9.40;101930.00;;;;10559125;28;20239;-77
2021/11/06 16:59:08;;;;;;;6.87;3.90;;;;;9.40;101926.00;;;;10558337;28;20205;-77
2021/11/06 17:04:10;;;;;;;7.70;4.23;;;;;9.50;101926.00;;;;10524277;28;20231;-78
2021/11/06 17:09:30;;;;;;;8.80;4.60;;;;;9.60;101905.00;;;;10541182;28;20188;-78
2021/11/06 17:14:31;;;;;;;4.97;4.43;;;;;9.60;101919.00;;;;10533784;28;20206;-77
2021/11/06 17:19:34;;;;;;;7.10;4.27;;;;;9.60;101902.00;;;;10566216;28;20211;-77
2021/11/06 17:24:36;;;;;;;7.17;4.63;;;;;9.50;101888.00;;;;10533138;28;20187;-77
2021/11/06 17:29:39;;;;;;;7.57;5.00;;;;;9.40;101877.00;;;;10548533;28;20184;-78
2021/11/06 17:34:41;;;;;;;7.83;4.60;;;;;9.30;101873.00;;;;10532430;28;20220;-77
2021/11/06 17:39:43;;;;;;;7.57;5.07;;;;;9.40;101851.00;;;;10510422;28;20217;-77
2021/11/06 17:44:45;;;;;;;9.33;5.63;;;;;9.40;101862.00;;;;10523460;28;20578;-77
2021/11/06 17:49:52;;;;;;;10.23;5.70;;;;;9.40;101862.00;;;;10490076;28;20204;-78
2021/11/06 17:54:55;;;;;;;11.20;5.77;;;;;9.50;101865.00;;;;10539997;28;20224;-78
2021/11/06 17:59:57;;;;;;;8.10;5.53;;;;;9.50;101862.00;;;;10522719;28;20208;-77
2021/11/06 18:05:03;;;;;;;10.83;5.83;;;;;9.60;101879.00;;;;10522245;28;20197;-77
2021/11/06 18:10:06;;;;;;;12.40;5.67;;;;;9.60;101887.00;;;;10564048;28;20291;-77
2021/11/06 18:15:09;;;;;;;9.27;5.57;;;;;9.60;101875.00;;;;10547007;28;20196;-78
2021/11/06 18:20:12;;;;;;;11.10;6.47;;;;;9.60;101842.00;;;;10514035;28;20212;-78
2021/11/06 18:25:15;;;;;;;9.77;5.70;;;;;9.60;101822.00;;;;10547602;28;20188;-77
2021/11/06 18:30:19;;;;;;;11.53;5.63;;;;;9.60;101837.00;;;;10513986;28;20192;-77
2021/11/06 18:35:21;;;;;;;7.37;4.97;;;;;9.60;101850.00;;;;10530395;28;20195;-77
2021/11/06 18:40:27;;;;;;;8.97;5.50;;;;;9.60;101830.00;;;;10548121;28;20565;-78
2021/11/06 18:45:31;;;;;;;8.50;5.77;;;;;9.60;101821.00;;;;10514003;28;20226;-77
2021/11/06 18:50:33;;;;;;;8.30;4.93;;;;;9.70;101800.00;;;;10530337;28;20227;-77
2021/11/06 18:55:36;;;;;;;7.20;5.47;;;;;9.70;101782.00;;;;10530792;28;20279;-77
2021/11/06 19:00:38;;;;;;;10.63;5.57;;;;;9.70;101765.00;;;;10530089;28;20261;-77
2021/11/06 19:05:42;;;;;;;9.93;5.20;;;;;9.70;101766.00;;;;10546642;28;20196;-77
2021/11/06 19:10:45;;;;;;;7.03;5.20;;;;;9.70;101766.00;;;;10509658;28;20185;-78
2021/11/06 19:15:46;;;;;;;9.47;4.63;;;;;9.70;101798.00;;;;10488153;28;20268;-77
2021/11/06 19:20:52;;;;;;;7.47;4.70;;;;;9.70;101800.00;;;;10521129;28;20300;-77
2021/11/06 19:25:57;;;;;;;10.07;5.10;;;;;9.70;101801.00;;;;10488045;28;20193;-77
2021/11/06 19:31:00;;;;;;;7.60;4.27;;;;;9.70;101781.00;;;;10520936;28;20185;-78
2021/11/06 19:36:02;;;;;;;13.13;4.73;;;;;9.70;101763.00;;;;10505675;28;20189;-77
2021/11/06 19:41:04;;;;;;;9.37;4.87;;;;;9.80;101761.00;;;;10511881;28;20209;-77
2021/11/06 19:46:07;;;;;;;6.50;3.67;;;;;9.80;101742.00;;;;10494623;28;20205;-78
2021/11/06 19:51:09;;;;;;;5.97;3.40;;;;;9.80;101730.00;;;;10477785;28;20300;-77
2021/11/06 19:56:10;;;;;;;8.23;3.37;;;;;9.90;101732.00;;;;10510805;28;20216;-77
2021/11/06 20:01:13;;;;;;;4.67;3.73;;;;;9.90;101723.00;;;;10478084;28;20205;-77
2021/11/06 20:06:15;;;;;;;8.40;4.10;;;;;9.90;101706.00;;;;10493599;28;20201;-77
2021/11/06 20:11:17;;;;;;;5.33;3.20;;;;;9.90;101714.00;;;;10545266;28;20557;-78
2021/11/06 20:16:19;;;;;;;6.10;3.20;;;;;9.90;101708.00;;;;10541066;28;20262;-77
2021/11/06 20:21:20;;;;;;;8.30;3.80;;;;;9.90;101707.00;;;;10519446;28;20231;-78
2021/11/06 20:26:22;;;;;;;6.83;3.70;;;;;9.90;101704.00;;;;10534961;28;20540;-78
2021/11/06 20:31:25;;;;;;;6.40;3.33;;;;;9.90;101704.00;;;;10517561;28;20243;-78
2021/11/06 20:36:27;;;;;;;5.37;3.40;;;;;9.90;101706.00;;;;10551536;28;20229;-78
2021/11/06 20:41:28;;;;;;;4.33;2.87;;;;;9.90;101708.00;;;;10550671;28;20676;-78
2021/11/06 20:46:34;;;;;;;6.07;3.13;;;;;9.90;101710.00;;;;10550071;28;20254;-78
2021/11/06 20:51:36;;;;;;;3.80;2.57;;;;;9.90;101707.00;;;;10550362;28;20610;-78
2021/11/06 20:56:38;;;;;;;5.10;2.93;;;;;9.90;101699.00;;;;10550253;28;20567;-78
2021/11/06 21:01:40;;;;;;;3.77;2.70;;;;;9.90;101696.00;;;;10533246;28;20208;-77
2021/11/06 21:06:42;;;;;;;6.97;2.93;;;;;9.90;101699.00;;;;10566592;28;20677;-78
2021/11/06 21:22:21;;;;;;;6.20;2.83;;;;;10.10;101667.00;;;;10565928;28;20773;-78
2021/11/06 21:27:24;;;;;;;4.00;2.80;;;;;10.10;101669.00;;;;10531282;28;20193;-78
2021/11/06 21:32:27;;;;;;;6.27;2.53;;;;;10.10;101670.00;;;;10531736;28;20184;-78
2021/11/06 21:38:05;;;;;;;4.30;2.87;;;;;10.10;101648.00;;;;10515614;28;20195;-78
2021/11/06 21:42:59;;;;;;;7.47;2.40;;;;;10.00;101637.00;;;;10561510;28;20216;-78
2021/11/06 21:48:02;;;;;;;6.10;3.10;;;;;10.00;101642.00;;;;10531555;28;20636;-78
2021/11/06 21:53:04;;;;;;;7.13;2.43;;;;;10.00;101637.00;;;;10515546;28;20219;-78
2021/11/06 21:58:07;;;;;;;4.30;2.53;;;;;9.90;101612.00;;;;10531156;28;20195;-78
2021/11/06 22:03:09;;;;;;;9.20;2.70;;;;;9.90;101618.00;;;;10531479;28;20268;-78
2021/11/06 22:08:10;;;;;;;5.50;2.53;;;;;9.90;101597.00;;;;10564877;28;20651;-78
2021/11/06 22:13:13;;;;;;;4.97;2.70;;;;;9.80;101594.00;;;;10548347;28;20185;-78
2021/11/06 22:18:16;;;;;;;3.07;2.53;;;;;9.80;101582.00;;;;10531464;28;20240;-78
2021/11/06 22:23:19;;;;;;;10.37;2.97;;;;;9.80;101586.00;;;;10564164;28;20218;-78
2021/11/06 22:28:21;;;;;;;8.07;2.60;;;;;9.90;101567.00;;;;10514405;28;20192;-78
2021/11/06 22:33:23;;;;;;;5.77;2.67;;;;;9.90;101567.00;;;;10530904;28;20253;-79
2021/11/06 22:38:25;;;;;;;4.47;2.60;;;;;9.90;101568.00;;;;10547348;28;20188;-78
2021/11/06 22:43:28;;;;;;;4.33;2.37;;;;;9.90;101562.00;;;;10564219;28;20249;-78
2021/11/06 22:48:30;;;;;;;7.53;2.80;;;;;9.90;101572.00;;;;10514011;28;20231;-78
2021/11/06 22:53:34;;;;;;;5.00;2.53;;;;;9.90;101554.00;;;;10513908;28;20189;-78
2021/11/06 22:58:36;;;;;;;5.10;2.67;;;;;10.00;101551.00;;;;10530583;28;20246;-78
2021/11/06 23:03:42;;;;;;;4.87;2.60;;;;;10.00;101530.00;;;;10546228;28;20216;-78
2021/11/06 23:08:49;;;;;;;6.87;3.03;;;;;10.00;101525.00;;;;10547073;28;20196;-78
2021/11/06 23:13:52;;;;;;;8.00;3.03;;;;;10.10;101518.00;;;;10538212;28;20307;-78
2021/11/06 23:18:54;;;;;;;6.73;3.13;;;;;10.10;101514.00;;;;10538260;28;20192;-78
2021/11/06 23:23:58;;;;;;;5.47;2.37;;;;;10.10;101514.00;;;;10538197;28;20212;-78
2021/11/06 23:29:00;;;;;;;5.17;3.17;;;;;10.00;101502.00;;;;10554579;28;20188;-78
2021/11/06 23:34:03;;;;;;;3.53;2.47;;;;;10.00;101508.00;;;;10537636;28;20214;-78
2021/11/06 23:39:07;;;;;;;5.83;3.30;;;;;9.90;101493.00;;;;10537007;28;20197;-78
2021/11/06 23:44:09;;;;;;;8.90;3.10;;;;;9.80;101500.00;;;;10537227;28;20200;-78
2021/11/06 23:49:11;;;;;;;5.13;2.93;;;;;9.60;101490.00;;;;10519378;28;20220;-77
2021/11/06 23:54:22;;;;;;;8.07;3.50;;;;;9.50;101481.00;;;;10552680;28;20192;-78
